Time;durP1;ratioP1;P1;durP2;ratioP2;P2;SDS_P1;SDS_P2;PMS_P1;PMS_P2;Temp;Humidity;BMP_temperature;BMP_pressure;BME280_temperature;BME280_humidity;BME280_pressure;Samples;Min_cycle;Max_cycle;Signal;HPM_P1;HPM_P2
2021/12/31 00:01:07;;;;;;;1.05;1.05;;;14.10;99.90;;;;;;5224380;28;20492;-76
2021/12/31 00:03:44;;;;;;;0.80;0.80;;;14.20;99.90;;;;;;5252781;28;20036;-76
2021/12/31 00:06:17;;;;;;;0.80;0.80;;;14.20;99.90;;;;;;5242763;28;20051;-77
2021/12/31 00:08:54;;;;;;;0.90;0.90;;;14.20;99.90;;;;;;5254227;28;20039;-77
2021/12/31 00:11:25;;;;;;;0.80;0.80;;;14.10;99.90;;;;;;5261348;28;20032;-76
2021/12/31 00:13:58;;;;;;;0.80;0.80;;;14.10;99.90;;;;;;5253845;28;20338;-76
2021/12/31 00:16:29;;;;;;;0.90;0.90;;;14.00;99.90;;;;;;5247185;28;20031;-76
2021/12/31 00:19:03;;;;;;;0.90;0.90;;;14.00;99.90;;;;;;5241248;28;20067;-77
2021/12/31 00:21:41;;;;;;;1.33;1.33;;;14.00;99.90;;;;;;5242877;28;20024;-76
2021/12/31 00:24:13;;;;;;;0.90;0.90;;;14.00;99.90;;;;;;5246312;28;20036;-76
2021/12/31 00:26:43;;;;;;;0.80;0.80;;;14.10;99.90;;;;;;5258993;28;20252;-76
2021/12/31 00:29:17;;;;;;;0.77;0.77;;;14.10;99.90;;;;;;5259969;28;20038;-75
2021/12/31 00:31:50;;;;;;;1.00;1.00;;;14.20;99.90;;;;;;5261482;28;20042;-75
2021/12/31 00:34:24;;;;;;;1.00;1.00;;;14.10;99.90;;;;;;5255562;28;20042;-74
2021/12/31 00:37:02;;;;;;;0.75;0.75;;;14.10;99.90;;;;;;5260349;28;20428;-75
2021/12/31 00:39:33;;;;;;;0.70;0.70;;;14.00;99.90;;;;;;5262619;28;20024;-75
2021/12/31 00:42:04;;;;;;;0.80;0.80;;;14.00;99.90;;;;;;5279316;28;20187;-75
2021/12/31 00:44:45;;;;;;;0.63;0.63;;;14.00;99.90;;;;;;5255162;28;20398;-75
2021/12/31 00:47:16;;;;;;;0.95;0.95;;;14.00;99.90;;;;;;5250111;28;20032;-75
2021/12/31 00:49:52;;;;;;;0.90;0.90;;;14.00;99.90;;;;;;5244429;28;20111;-77
2021/12/31 00:52:23;;;;;;;0.73;0.73;;;14.00;99.90;;;;;;5241649;28;20088;-76
2021/12/31 00:54:57;;;;;;;0.80;0.80;;;14.00;99.90;;;;;;5240141;28;20032;-75
2021/12/31 00:57:28;;;;;;;0.80;0.80;;;14.00;99.90;;;;;;5254417;28;20027;-77
2021/12/31 01:00:02;;;;;;;0.75;0.75;;;14.00;99.90;;;;;;5258917;28;20388;-75
2021/12/31 01:02:36;;;;;;;0.85;0.85;;;13.90;99.90;;;;;;5251859;28;20027;-76
2021/12/31 01:05:08;;;;;;;0.85;0.85;;;13.90;99.90;;;;;;5258078;28;20051;-77
2021/12/31 01:07:40;;;;;;;0.63;0.63;;;14.00;99.90;;;;;;5244532;28;20040;-77
2021/12/31 01:10:16;;;;;;;0.70;0.70;;;14.00;99.90;;;;;;5251100;28;20036;-76
2021/12/31 01:12:47;;;;;;;0.82;0.82;;;14.10;99.90;;;;;;5252511;28;20081;-76
2021/12/31 01:18:15;;;;;;;0.85;0.85;;;13.90;99.90;;;;;;5243057;28;20106;-77
2021/12/31 01:20:51;;;;;;;0.77;0.77;;;13.90;99.90;;;;;;5252780;28;20032;-77
2021/12/31 01:23:34;;;;;;;0.60;0.60;;;13.80;99.90;;;;;;5248039;28;20058;-75
2021/12/31 01:26:13;;;;;;;0.70;0.70;;;13.80;99.90;;;;;;5258656;28;20032;-76
2021/12/31 01:28:48;;;;;;;0.80;0.80;;;13.70;99.90;;;;;;5255260;28;20016;-75
2021/12/31 01:31:21;;;;;;;;;;;13.60;99.90;;;;;;5266246;28;20047;-76
2021/12/31 01:33:52;;;;;;;0.90;0.90;;;13.60;99.90;;;;;;5257050;28;19983;-76
2021/12/31 01:36:23;;;;;;;0.75;0.75;;;13.60;99.90;;;;;;5260133;28;20039;-76
2021/12/31 01:38:55;;;;;;;0.90;0.90;;;13.60;99.90;;;;;;5241970;28;20036;-76
2021/12/31 01:41:26;;;;;;;0.90;0.90;;;13.60;99.90;;;;;;5253713;28;20040;-76
2021/12/31 01:44:07;;;;;;;0.90;0.90;;;13.50;99.90;;;;;;5241815;28;20079;-76
2021/12/31 01:47:05;;;;;;;0.90;0.90;;;13.50;99.90;;;;;;5246188;28;20024;-77
2021/12/31 01:49:54;;;;;;;0.82;0.82;;;13.50;99.90;;;;;;5271259;28;20474;-76
2021/12/31 01:52:28;;;;;;;0.90;0.90;;;13.50;99.90;;;;;;5244450;28;20031;-76
2021/12/31 01:55:10;;;;;;;0.90;0.90;;;13.50;99.90;;;;;;5258783;28;20099;-77
2021/12/31 01:57:45;;;;;;;0.80;0.80;;;13.40;99.90;;;;;;5251142;28;20028;-76
2021/12/31 02:00:19;;;;;;;0.90;0.90;;;13.40;99.90;;;;;;5256842;28;20039;-76
2021/12/31 02:02:57;;;;;;;0.90;0.90;;;13.30;99.90;;;;;;5247516;28;20396;-75
2021/12/31 02:05:31;;;;;;;0.80;0.80;;;13.20;99.90;;;;;;5254335;28;20313;-77
2021/12/31 02:08:05;;;;;;;0.82;0.82;;;13.20;99.90;;;;;;5253046;28;20040;-75
2021/12/31 02:10:36;;;;;;;0.80;0.80;;;13.30;99.90;;;;;;5249495;28;20106;-75
2021/12/31 02:13:14;;;;;;;0.75;0.75;;;13.40;99.90;;;;;;5249796;28;20596;-75
2021/12/31 02:15:54;;;;;;;0.70;0.70;;;13.40;99.90;;;;;;5261352;28;20029;-75
2021/12/31 02:18:27;;;;;;;0.70;0.70;;;13.40;99.90;;;;;;5246860;28;20020;-75
2021/12/31 02:21:07;;;;;;;0.60;0.60;;;13.40;99.90;;;;;;5256719;28;20123;-75
2021/12/31 02:23:44;;;;;;;0.90;0.90;;;13.40;99.90;;;;;;5243175;28;20206;-75
2021/12/31 02:26:18;;;;;;;0.80;0.80;;;13.30;99.90;;;;;;5259162;28;20561;-77
2021/12/31 02:28:54;;;;;;;0.80;0.80;;;13.30;99.90;;;;;;5251161;28;20428;-75
2021/12/31 02:31:27;;;;;;;0.70;0.70;;;13.40;99.90;;;;;;5252619;28;20037;-75
2021/12/31 02:34:04;;;;;;;1.13;1.13;;;13.40;99.90;;;;;;5263812;28;20047;-74
2021/12/31 02:36:35;;;;;;;0.60;0.60;;;13.20;99.90;;;;;;5259295;28;20044;-76
2021/12/31 02:39:11;;;;;;;0.60;0.60;;;13.20;99.90;;;;;;5249949;28;20382;-76
2021/12/31 02:41:44;;;;;;;0.88;0.88;;;13.20;99.90;;;;;;5248518;28;20044;-76
2021/12/31 02:44:15;;;;;;;0.90;0.90;;;13.30;99.90;;;;;;5261225;28;20044;-74
2021/12/31 02:46:46;;;;;;;0.80;0.80;;;13.20;99.90;;;;;;5243680;28;20481;-74
2021/12/31 02:49:23;;;;;;;0.70;0.70;;;13.30;99.90;;;;;;5241780;28;20047;-75
2021/12/31 02:51:59;;;;;;;0.70;0.70;;;13.30;99.90;;;;;;5251062;28;20506;-74
2021/12/31 02:54:41;;;;;;;0.80;0.80;;;13.20;99.90;;;;;;5257490;28;20028;-75
2021/12/31 02:57:18;;;;;;;0.80;0.80;;;13.10;99.90;;;;;;5255317;28;20049;-74
2021/12/31 02:59:53;;;;;;;0.80;0.80;;;13.20;99.90;;;;;;5257346;28;20060;-74
2021/12/31 03:02:27;;;;;;;0.80;0.80;;;13.20;99.90;;;;;;5240726;28;20345;-76
2021/12/31 03:05:06;;;;;;;0.95;0.95;;;13.20;99.90;;;;;;5250179;28;20054;-75
2021/12/31 03:07:43;;;;;;;0.73;0.73;;;13.10;99.90;;;;;;5258951;28;20275;-74
2021/12/31 03:10:15;;;;;;;1.00;1.00;;;13.00;99.90;;;;;;5258630;28;20035;-76
2021/12/31 03:12:54;;;;;;;1.20;1.20;;;13.00;99.90;;;;;;5233265;28;20354;-75
2021/12/31 03:15:26;;;;;;;0.82;0.82;;;13.10;99.90;;;;;;5250758;28;20028;-75
2021/12/31 03:18:03;;;;;;;0.82;0.82;;;13.00;99.90;;;;;;5251710;28;20090;-76
2021/12/31 03:20:40;;;;;;;0.70;0.70;;;13.00;99.90;;;;;;5261333;28;20110;-74
2021/12/31 03:23:15;;;;;;;0.60;0.60;;;12.90;99.90;;;;;;5240524;28;20056;-75
2021/12/31 03:25:48;;;;;;;0.90;0.90;;;13.00;99.90;;;;;;5237502;28;20063;-75
2021/12/31 03:28:23;;;;;;;0.80;0.80;;;12.90;99.90;;;;;;5245397;28;20036;-75
2021/12/31 03:30:55;;;;;;;0.70;0.70;;;12.90;99.90;;;;;;5256745;28;20028;-74
2021/12/31 03:33:26;;;;;;;0.80;0.80;;;12.90;99.90;;;;;;5232916;28;20024;-74
2021/12/31 03:35:59;;;;;;;0.70;0.70;;;13.10;99.90;;;;;;5249068;28;20059;-75
2021/12/31 03:38:35;;;;;;;0.90;0.90;;;13.00;99.90;;;;;;5246472;28;20819;-75
2021/12/31 03:41:14;;;;;;;0.80;0.80;;;12.90;99.90;;;;;;5243317;28;20289;-78
2021/12/31 03:43:50;;;;;;;0.70;0.70;;;13.00;99.90;;;;;;5255979;28;20024;-75
2021/12/31 03:46:26;;;;;;;0.80;0.80;;;13.00;99.90;;;;;;5242535;28;20020;-75
2021/12/31 03:48:57;;;;;;;0.80;0.80;;;13.00;99.90;;;;;;5255654;28;20554;-76
2021/12/31 03:51:37;;;;;;;0.90;0.90;;;13.00;99.90;;;;;;5257122;28;20048;-76
2021/12/31 03:54:08;;;;;;;0.80;0.80;;;13.00;99.90;;;;;;5241628;28;20044;-75
2021/12/31 03:56:42;;;;;;;0.80;0.80;;;12.90;99.90;;;;;;5260964;28;20275;-75
2021/12/31 03:59:13;;;;;;;1.02;1.02;;;13.10;99.90;;;;;;5261582;28;20032;-76
2021/12/31 04:01:47;;;;;;;0.70;0.70;;;13.00;99.90;;;;;;5260724;28;20028;-76
2021/12/31 04:04:21;;;;;;;0.82;0.82;;;13.10;99.90;;;;;;5268021;28;20032;-78
2021/12/31 04:06:52;;;;;;;0.80;0.80;;;13.00;99.90;;;;;;5242622;28;20094;-77
2021/12/31 04:09:23;;;;;;;0.85;0.85;;;13.00;99.90;;;;;;5253532;28;20027;-77
2021/12/31 04:11:59;;;;;;;0.80;0.80;;;13.10;99.90;;;;;;5250498;28;20038;-76
2021/12/31 04:14:32;;;;;;;0.80;0.80;;;13.10;99.90;;;;;;5234402;28;20401;-77
2021/12/31 04:17:10;;;;;;;0.90;0.90;;;13.20;99.90;;;;;;5248452;28;20040;-77
2021/12/31 04:19:51;;;;;;;0.80;0.80;;;13.10;99.90;;;;;;5255236;28;20118;-76
2021/12/31 04:22:24;;;;;;;1.27;1.27;;;13.20;99.90;;;;;;5257231;28;20458;-77
2021/12/31 04:24:55;;;;;;;1.38;1.27;;;13.20;99.90;;;;;;5261748;28;20032;-77
2021/12/31 04:27:31;;;;;;;0.82;0.82;;;13.10;99.90;;;;;;5260538;28;20031;-77
2021/12/31 04:30:04;;;;;;;0.80;0.80;;;13.20;99.90;;;;;;5251494;28;20040;-77
2021/12/31 04:32:35;;;;;;;1.00;1.00;;;13.20;99.90;;;;;;5250581;28;20337;-76
2021/12/31 04:35:14;;;;;;;0.90;0.90;;;13.10;99.90;;;;;;5250365;28;20035;-77
2021/12/31 04:37:51;;;;;;;1.05;1.05;;;13.10;99.90;;;;;;5256324;28;20052;-76
2021/12/31 04:40:22;;;;;;;0.80;0.80;;;13.00;99.90;;;;;;5255706;28;20103;-77
2021/12/31 04:42:53;;;;;;;0.80;0.80;;;13.10;99.90;;;;;;5254163;28;20038;-76
2021/12/31 04:45:28;;;;;;;0.60;0.60;;;13.10;99.90;;;;;;5250877;28;20016;-77
2021/12/31 04:48:09;;;;;;;0.80;0.80;;;13.00;99.90;;;;;;5251458;28;20035;-76
2021/12/31 04:50:42;;;;;;;0.80;0.80;;;13.10;99.90;;;;;;5256188;28;20050;-78
2021/12/31 04:53:13;;;;;;;0.88;0.88;;;13.20;99.90;;;;;;5243475;28;20032;-75
2021/12/31 04:55:47;;;;;;;0.77;0.77;;;13.10;99.90;;;;;;5255103;28;20386;-76
2021/12/31 04:58:20;;;;;;;1.00;1.00;;;13.10;99.90;;;;;;5222116;28;20051;-75
2021/12/31 05:00:53;;;;;;;0.60;0.60;;;13.10;99.90;;;;;;5238841;28;20044;-76
2021/12/31 05:03:29;;;;;;;0.70;0.70;;;13.10;99.90;;;;;;5255870;28;20039;-75
2021/12/31 05:06:05;;;;;;;0.60;0.60;;;13.10;99.90;;;;;;5254010;28;20496;-75
2021/12/31 05:08:36;;;;;;;0.70;0.70;;;13.00;99.90;;;;;;5249309;28;20130;-75
2021/12/31 05:11:14;;;;;;;0.73;0.73;;;13.00;99.90;;;;;;5248205;28;20028;-76
2021/12/31 05:13:48;;;;;;;1.10;1.10;;;12.90;99.90;;;;;;5257532;28;20044;-75
2021/12/31 05:16:21;;;;;;;0.80;0.80;;;13.00;99.90;;;;;;5250608;28;20024;-76
2021/12/31 05:18:54;;;;;;;0.70;0.70;;;13.10;99.90;;;;;;5253883;28;20036;-75
2021/12/31 05:21:27;;;;;;;0.80;0.80;;;13.20;99.90;;;;;;5234634;28;20359;-75
2021/12/31 05:24:02;;;;;;;0.98;0.98;;;13.10;99.90;;;;;;5254198;28;20450;-77
2021/12/31 05:26:35;;;;;;;0.80;0.80;;;13.20;99.90;;;;;;5254093;28;20153;-75
2021/12/31 05:29:08;;;;;;;0.90;0.90;;;13.20;99.90;;;;;;5261962;28;20574;-78
2021/12/31 05:31:48;;;;;;;0.63;0.63;;;13.20;99.90;;;;;;5252142;28;20334;-75
2021/12/31 05:34:25;;;;;;;0.80;0.80;;;13.10;99.90;;;;;;5255082;28;20086;-76
2021/12/31 05:37:03;;;;;;;0.80;0.80;;;13.30;99.90;;;;;;5227504;28;20067;-74
2021/12/31 05:39:35;;;;;;;0.80;0.80;;;13.20;99.90;;;;;;5260309;28;20398;-77
2021/12/31 05:42:11;;;;;;;0.65;0.65;;;13.20;99.90;;;;;;5260680;28;20081;-76
2021/12/31 05:44:45;;;;;;;0.95;0.95;;;13.20;99.90;;;;;;5258821;28;20040;-78
2021/12/31 05:47:18;;;;;;;0.85;0.85;;;13.20;99.90;;;;;;5259889;28;20033;-75
2021/12/31 05:49:50;;;;;;;0.93;0.93;;;13.20;99.90;;;;;;5246618;28;20044;-76
2021/12/31 05:52:23;;;;;;;0.70;0.70;;;13.20;99.90;;;;;;5257240;28;20031;-77
2021/12/31 05:54:59;;;;;;;0.80;0.80;;;13.20;99.90;;;;;;5252351;28;20067;-76
2021/12/31 05:57:33;;;;;;;0.80;0.80;;;13.30;99.90;;;;;;5253958;28;20028;-77
2021/12/31 06:00:05;;;;;;;1.35;1.27;;;13.30;99.90;;;;;;5256500;28;20028;-77
2021/12/31 06:02:36;;;;;;;0.93;0.93;;;13.30;99.90;;;;;;5248723;28;20089;-76
2021/12/31 06:05:08;;;;;;;0.80;0.80;;;13.30;99.90;;;;;;5238203;28;20471;-76
2021/12/31 06:07:44;;;;;;;0.82;0.82;;;13.30;99.90;;;;;;5250859;28;20069;-76
2021/12/31 06:10:15;;;;;;;0.90;0.90;;;13.30;99.90;;;;;;5254025;28;20097;-77
2021/12/31 06:12:52;;;;;;;0.75;0.75;;;13.30;99.90;;;;;;5254640;28;20031;-76
2021/12/31 06:15:25;;;;;;;0.93;0.93;;;13.30;99.90;;;;;;5241657;28;20091;-75
2021/12/31 06:18:02;;;;;;;0.77;0.77;;;13.40;99.90;;;;;;5258506;28;20054;-76
2021/12/31 06:20:42;;;;;;;1.10;1.10;;;13.30;99.90;;;;;;5233451;28;20036;-77
2021/12/31 06:23:19;;;;;;;1.10;1.10;;;13.30;99.90;;;;;;5255381;28;20063;-74
2021/12/31 06:25:53;;;;;;;0.85;0.85;;;13.40;99.90;;;;;;5239621;28;20032;-76
2021/12/31 06:28:28;;;;;;;0.90;0.90;;;13.50;99.90;;;;;;5231261;28;20094;-77
2021/12/31 06:31:04;;;;;;;1.52;1.42;;;13.50;99.90;;;;;;5239733;28;20269;-75
2021/12/31 06:33:37;;;;;;;0.90;0.90;;;13.50;99.90;;;;;;5252557;28;20035;-75
2021/12/31 06:36:10;;;;;;;0.80;0.80;;;13.50;99.90;;;;;;5241701;28;20040;-75
2021/12/31 06:38:44;;;;;;;1.20;1.20;;;13.60;99.90;;;;;;5261908;28;20034;-75
2021/12/31 06:41:16;;;;;;;1.07;1.07;;;13.70;99.90;;;;;;5234373;28;20032;-76
2021/12/31 06:43:47;;;;;;;0.70;0.70;;;13.60;99.90;;;;;;5254940;28;20283;-77
2021/12/31 06:46:21;;;;;;;0.80;0.80;;;13.60;99.90;;;;;;5257188;28;20013;-75
2021/12/31 06:48:54;;;;;;;0.77;0.77;;;13.70;99.90;;;;;;5243962;28;20052;-75
2021/12/31 06:51:28;;;;;;;0.70;0.70;;;13.70;99.90;;;;;;5256852;28;20032;-76
2021/12/31 06:54:04;;;;;;;0.97;0.97;;;13.80;99.90;;;;;;5253086;28;20035;-77
2021/12/31 06:56:37;;;;;;;1.05;1.05;;;13.80;99.90;;;;;;5246222;28;20319;-75
2021/12/31 06:59:08;;;;;;;0.80;0.80;;;13.80;99.90;;;;;;5222932;28;20217;-77
2021/12/31 07:01:39;;;;;;;0.68;0.68;;;13.90;99.90;;;;;;5248857;28;20554;-78
2021/12/31 07:04:10;;;;;;;0.80;0.80;;;13.90;99.90;;;;;;5252015;28;20376;-76
2021/12/31 07:06:46;;;;;;;0.82;0.82;;;13.90;99.90;;;;;;5233700;28;20529;-75
2021/12/31 07:09:22;;;;;;;1.10;0.95;;;14.00;99.90;;;;;;5237794;28;20048;-75
2021/12/31 07:11:55;;;;;;;0.80;0.80;;;14.00;99.90;;;;;;5237844;28;20033;-78
2021/12/31 07:14:28;;;;;;;0.80;0.80;;;13.90;99.90;;;;;;5253670;28;20078;-78
2021/12/31 07:17:04;;;;;;;0.70;0.70;;;14.00;99.90;;;;;;5259340;28;20077;-77
2021/12/31 07:19:37;;;;;;;0.80;0.80;;;14.00;99.90;;;;;;5262452;28;20020;-76
2021/12/31 07:22:13;;;;;;;0.80;0.80;;;14.00;99.90;;;;;;5228739;28;20048;-76
2021/12/31 07:24:44;;;;;;;1.00;1.00;;;14.00;99.90;;;;;;5262009;28;20035;-78
2021/12/31 07:27:17;;;;;;;0.77;0.77;;;13.90;99.90;;;;;;5223277;28;20059;-77
2021/12/31 07:29:48;;;;;;;1.20;1.10;;;13.90;99.90;;;;;;5254393;28;20027;-76
2021/12/31 07:32:30;;;;;;;0.70;0.70;;;13.80;99.90;;;;;;5252925;28;20043;-78
2021/12/31 07:35:06;;;;;;;0.57;0.57;;;13.80;99.90;;;;;;5255732;28;20039;-76
2021/12/31 07:37:37;;;;;;;0.90;0.90;;;13.80;99.90;;;;;;5261252;28;20124;-77
2021/12/31 07:40:12;;;;;;;0.80;0.80;;;13.70;99.90;;;;;;5251818;28;20069;-77
2021/12/31 07:42:42;;;;;;;0.93;0.93;;;13.70;99.90;;;;;;5257298;28;20396;-77
2021/12/31 07:45:13;;;;;;;0.90;0.90;;;13.70;99.90;;;;;;5260312;28;20036;-75
2021/12/31 07:47:44;;;;;;;0.80;0.80;;;13.70;99.90;;;;;;5259090;28;20077;-75
2021/12/31 07:50:15;;;;;;;0.80;0.80;;;13.80;99.90;;;;;;5258480;28;20078;-75
2021/12/31 07:52:51;;;;;;;0.95;0.95;;;13.80;99.90;;;;;;5259358;28;20504;-76
2021/12/31 07:55:23;;;;;;;0.80;0.80;;;13.80;99.90;;;;;;5254631;28;20099;-77
2021/12/31 07:57:54;;;;;;;0.80;0.80;;;13.70;99.90;;;;;;5266894;28;20033;-75
2021/12/31 08:00:31;;;;;;;1.40;1.30;;;13.70;99.90;;;;;;5252610;28;20496;-75
2021/12/31 08:03:10;;;;;;;0.80;0.80;;;13.80;99.90;;;;;;5270868;28;20093;-77
2021/12/31 08:05:48;;;;;;;1.40;1.40;;;13.70;99.90;;;;;;5254629;28;20416;-77
2021/12/31 08:08:19;;;;;;;0.95;0.95;;;13.80;99.90;;;;;;5255032;28;20556;-77
2021/12/31 08:10:53;;;;;;;0.90;0.90;;;13.80;99.90;;;;;;5259306;28;20048;-78
2021/12/31 08:13:25;;;;;;;0.90;0.90;;;13.80;99.90;;;;;;5258306;28;20023;-77
2021/12/31 08:15:58;;;;;;;1.02;1.02;;;14.00;99.90;;;;;;5252914;28;20063;-76
2021/12/31 08:18:31;;;;;;;0.75;0.75;;;14.10;99.90;;;;;;5264545;28;20024;-76
2021/12/31 08:21:06;;;;;;;0.80;0.80;;;14.30;99.90;;;;;;5255247;28;20027;-78
2021/12/31 08:23:39;;;;;;;0.80;0.80;;;14.50;99.90;;;;;;5258792;28;20036;-78
2021/12/31 08:26:13;;;;;;;1.03;1.03;;;14.70;99.90;;;;;;5253385;28;20048;-76
2021/12/31 08:28:47;;;;;;;0.70;0.70;;;14.90;99.90;;;;;;5258700;28;20085;-76
2021/12/31 08:31:18;;;;;;;0.80;0.80;;;15.10;99.90;;;;;;5259889;28;20042;-78
2021/12/31 08:33:51;;;;;;;0.70;0.70;;;15.30;99.90;;;;;;5225074;28;20040;-76
2021/12/31 08:36:25;;;;;;;0.80;0.80;;;15.30;99.90;;;;;;5258280;28;20388;-77
2021/12/31 08:39:00;;;;;;;0.90;0.90;;;15.50;99.90;;;;;;5258699;28;20036;-77
2021/12/31 08:41:31;;;;;;;0.80;0.80;;;15.60;99.90;;;;;;5223942;28;20032;-77
2021/12/31 08:44:05;;;;;;;0.77;0.77;;;15.50;99.90;;;;;;5261301;28;20042;-77
2021/12/31 08:46:42;;;;;;;0.73;0.73;;;15.60;99.90;;;;;;5264254;28;20077;-75
2021/12/31 08:49:15;;;;;;;0.90;0.90;;;15.40;99.90;;;;;;5258110;28;20103;-76
2021/12/31 08:51:52;;;;;;;0.82;0.82;;;15.50;99.90;;;;;;5247092;28;20024;-76
2021/12/31 08:54:23;;;;;;;0.73;0.73;;;15.50;99.90;;;;;;5259584;28;20483;-78
2021/12/31 08:56:54;;;;;;;0.80;0.80;;;15.30;99.90;;;;;;5254216;28;20024;-75
2021/12/31 08:59:25;;;;;;;1.15;1.15;;;15.10;99.90;;;;;;5257822;28;20062;-77
2021/12/31 09:01:59;;;;;;;0.90;0.90;;;15.00;99.90;;;;;;5237360;28;20040;-77
2021/12/31 09:04:30;;;;;;;0.73;0.73;;;15.00;99.90;;;;;;5249901;28;20102;-75
2021/12/31 09:07:01;;;;;;;0.75;0.75;;;14.80;99.90;;;;;;5270334;28;20145;-78
2021/12/31 09:09:42;;;;;;;0.70;0.70;;;14.70;99.90;;;;;;5254767;28;20036;-75
2021/12/31 09:12:16;;;;;;;0.90;0.90;;;14.80;99.90;;;;;;5251726;28;20032;-77
2021/12/31 09:14:51;;;;;;;0.80;0.80;;;14.90;99.90;;;;;;5226118;28;20562;-78
2021/12/31 09:17:22;;;;;;;0.80;0.80;;;14.90;99.90;;;;;;5242016;28;20321;-76
2021/12/31 09:19:55;;;;;;;0.95;0.95;;;14.90;99.90;;;;;;5247491;28;20044;-78
2021/12/31 09:22:32;;;;;;;0.80;0.80;;;15.00;99.90;;;;;;5240022;28;20316;-77
2021/12/31 09:25:11;;;;;;;0.65;0.65;;;15.10;99.90;;;;;;5252781;28;20524;-75
2021/12/31 09:27:48;;;;;;;0.82;0.82;;;15.10;99.90;;;;;;5249034;28;20113;-75
2021/12/31 09:30:19;;;;;;;0.90;0.90;;;15.20;99.90;;;;;;5268544;28;20046;-77
2021/12/31 09:32:50;;;;;;;1.13;1.13;;;15.10;99.90;;;;;;5263326;28;20056;-78
2021/12/31 09:35:23;;;;;;;0.80;0.80;;;15.20;99.90;;;;;;5252401;28;20330;-75
2021/12/31 09:37:55;;;;;;;0.77;0.77;;;15.20;99.90;;;;;;5251042;28;20024;-76
2021/12/31 09:40:29;;;;;;;0.70;0.70;;;15.10;99.90;;;;;;5255516;28;20036;-78
2021/12/31 09:43:12;;;;;;;0.80;0.80;;;15.20;99.90;;;;;;5254902;28;20059;-77
2021/12/31 09:45:52;;;;;;;0.70;0.70;;;15.10;99.90;;;;;;5269818;28;20288;-77
2021/12/31 09:48:31;;;;;;;0.95;0.95;;;15.20;99.90;;;;;;5244248;28;20632;-77
2021/12/31 09:51:09;;;;;;;1.02;1.02;;;15.20;99.90;;;;;;5246553;28;20032;-77
2021/12/31 09:53:43;;;;;;;0.70;0.70;;;15.20;99.90;;;;;;5259518;28;20103;-77
2021/12/31 09:56:14;;;;;;;;;;;15.30;99.90;;;;;;5241687;28;20059;-77
2021/12/31 09:58:47;;;;;;;1.02;1.02;;;15.50;99.90;;;;;;5258541;28;20150;-77
2021/12/31 10:01:18;;;;;;;0.70;0.70;;;15.50;99.90;;;;;;5246340;28;20664;-76
2021/12/31 10:04:04;;;;;;;0.90;0.90;;;15.30;99.90;;;;;;5241124;28;20032;-76
2021/12/31 10:06:40;;;;;;;0.90;0.90;;;15.20;99.90;;;;;;5225783;28;20109;-76
2021/12/31 10:09:12;;;;;;;0.73;0.73;;;15.30;99.90;;;;;;5251961;28;20040;-76
2021/12/31 10:11:47;;;;;;;0.85;0.85;;;15.80;99.90;;;;;;5245788;28;20510;-77
2021/12/31 10:14:38;;;;;;;0.80;0.80;;;15.90;99.90;;;;;;5247763;28;20047;-78
2021/12/31 10:17:13;;;;;;;0.65;0.65;;;15.80;99.90;;;;;;5252692;28;20020;-76
2021/12/31 10:19:56;;;;;;;0.90;0.90;;;15.90;99.90;;;;;;5233823;28;20023;-77
2021/12/31 10:22:29;;;;;;;0.77;0.77;;;16.00;99.90;;;;;;5249104;28;20074;-76
2021/12/31 10:24:59;;;;;;;0.77;0.77;;;15.80;99.90;;;;;;5259769;28;20016;-76
2021/12/31 10:27:38;;;;;;;0.93;0.93;;;15.70;99.90;;;;;;5258762;28;20372;-78
2021/12/31 10:30:22;;;;;;;0.90;0.90;;;15.70;99.90;;;;;;5256691;28;20038;-77
2021/12/31 10:32:56;;;;;;;0.70;0.70;;;15.60;99.90;;;;;;5253769;28;20044;-77
2021/12/31 10:35:53;;;;;;;0.90;0.90;;;15.30;99.90;;;;;;5262245;28;20541;-78
2021/12/31 10:38:40;;;;;;;0.93;0.93;;;15.50;99.90;;;;;;5258003;28;20332;-77
2021/12/31 10:41:11;;;;;;;0.80;0.80;;;15.60;99.90;;;;;;5259453;28;20073;-77
2021/12/31 10:43:51;;;;;;;0.80;0.80;;;15.80;99.90;;;;;;5261409;28;20074;-78
2021/12/31 10:46:27;;;;;;;0.88;0.88;;;16.00;99.90;;;;;;5261497;28;20214;-77
2021/12/31 10:49:06;;;;;;;0.75;0.75;;;16.40;99.90;;;;;;5257230;28;20461;-78
2021/12/31 10:51:40;;;;;;;0.80;0.80;;;16.80;99.90;;;;;;5246709;28;20088;-78
2021/12/31 10:54:50;;;;;;;1.02;1.02;;;16.80;99.90;;;;;;5262828;28;20024;-78
2021/12/31 10:57:39;;;;;;;0.80;0.80;;;16.60;99.90;;;;;;5256408;28;20029;-77
2021/12/31 11:00:20;;;;;;;0.85;0.85;;;16.10;99.90;;;;;;5256813;28;20048;-76
2021/12/31 11:02:52;;;;;;;0.80;0.80;;;15.70;99.90;;;;;;5241497;28;20063;-77
2021/12/31 11:05:26;;;;;;;0.75;0.75;;;15.40;99.90;;;;;;5236619;28;20545;-77
2021/12/31 11:08:08;;;;;;;0.88;0.88;;;16.00;99.90;;;;;;5255523;28;20040;-77
2021/12/31 11:10:42;;;;;;;0.73;0.73;;;16.40;99.90;;;;;;5241398;28;20376;-77
2021/12/31 11:13:19;;;;;;;;;;;16.90;99.90;;;;;;5258827;28;20050;-76
2021/12/31 11:15:54;;;;;;;0.82;0.82;;;17.10;99.90;;;;;;5241391;28;19912;-77
2021/12/31 11:18:34;;;;;;;0.90;0.90;;;16.80;99.90;;;;;;5254117;28;20505;-77
2021/12/31 11:21:12;;;;;;;0.77;0.77;;;17.10;99.90;;;;;;5248356;28;20142;-75
2021/12/31 11:23:44;;;;;;;0.75;0.75;;;17.90;99.90;;;;;;5252456;28;20043;-78
2021/12/31 11:26:31;;;;;;;0.65;0.65;;;18.00;99.90;;;;;;5272950;28;20455;-77
2021/12/31 11:29:15;;;;;;;0.70;0.70;;;17.70;99.90;;;;;;5255545;28;20035;-77
2021/12/31 11:31:48;;;;;;;1.00;1.00;;;18.00;99.90;;;;;;5254316;28;20099;-76
2021/12/31 11:34:27;;;;;;;0.70;0.70;;;18.20;99.90;;;;;;5253663;28;20627;-75
2021/12/31 11:37:02;;;;;;;0.95;0.95;;;18.00;99.90;;;;;;5247532;28;20036;-77
2021/12/31 11:39:40;;;;;;;0.80;0.80;;;17.70;99.90;;;;;;5263794;28;20044;-77
2021/12/31 11:42:18;;;;;;;0.60;0.60;;;17.80;99.90;;;;;;5253616;28;20028;-76
2021/12/31 11:45:18;;;;;;;0.85;0.85;;;18.40;99.90;;;;;;5258549;28;20032;-77
2021/12/31 11:47:49;;;;;;;0.60;0.60;;;19.00;99.90;;;;;;5247124;28;20036;-76
2021/12/31 11:50:29;;;;;;;0.70;0.70;;;19.00;99.90;;;;;;5260332;28;20055;-76
2021/12/31 11:53:04;;;;;;;0.68;0.68;;;18.50;99.90;;;;;;5247472;28;20358;-78
2021/12/31 11:55:49;;;;;;;0.80;0.80;;;18.20;99.90;;;;;;5274476;28;20353;-77
2021/12/31 11:58:42;;;;;;;0.70;0.70;;;17.90;99.90;;;;;;5256987;28;20028;-76
2021/12/31 12:01:40;;;;;;;0.80;0.80;;;17.60;99.90;;;;;;5254742;28;20115;-78
2021/12/31 12:04:32;;;;;;;0.70;0.70;;;17.70;99.90;;;;;;5246982;28;20104;-77
2021/12/31 12:07:36;;;;;;;1.00;1.00;;;17.90;99.90;;;;;;5250855;28;20040;-77
2021/12/31 12:10:06;;;;;;;0.68;0.68;;;18.50;99.90;;;;;;5248379;28;20346;-77
2021/12/31 12:12:42;;;;;;;0.60;0.60;;;18.50;99.90;;;;;;5253612;28;20130;-78
2021/12/31 12:15:21;;;;;;;1.08;1.08;;;18.20;99.90;;;;;;5252408;28;20347;-76
2021/12/31 12:17:58;;;;;;;0.70;0.70;;;18.10;99.90;;;;;;5256142;28;20044;-76
2021/12/31 12:20:38;;;;;;;0.60;0.60;;;18.10;99.90;;;;;;5248087;28;20100;-77
2021/12/31 12:23:18;;;;;;;0.70;0.70;;;18.20;99.90;;;;;;5245632;28;20036;-76
2021/12/31 12:25:51;;;;;;;1.00;1.00;;;18.00;99.90;;;;;;5277320;28;20336;-77
2021/12/31 12:28:27;;;;;;;0.80;0.80;;;18.00;99.90;;;;;;5245004;28;20047;-78
2021/12/31 12:31:05;;;;;;;0.77;0.77;;;18.20;99.90;;;;;;5257902;28;20040;-78
2021/12/31 12:33:36;;;;;;;5.15;1.63;;;19.40;99.90;;;;;;5229995;28;20028;-77
2021/12/31 12:36:10;;;;;;;0.93;0.93;;;20.00;99.90;;;;;;5255732;28;20031;-77
2021/12/31 12:38:41;;;;;;;0.77;0.77;;;19.30;99.90;;;;;;5255663;28;20028;-78
2021/12/31 12:41:13;;;;;;;11.38;1.98;;;19.50;99.90;;;;;;5234887;28;20375;-76
2021/12/31 12:43:49;;;;;;;0.50;0.50;;;19.60;99.90;;;;;;5224301;28;20306;-76
2021/12/31 12:46:21;;;;;;;0.60;0.60;;;20.00;99.90;;;;;;5267572;28;20056;-77
2021/12/31 12:48:57;;;;;;;0.57;0.57;;;21.00;99.90;;;;;;5251075;28;20036;-78
2021/12/31 12:51:31;;;;;;;0.98;0.98;;;20.90;99.90;;;;;;5249099;28;20139;-77
2021/12/31 12:54:03;;;;;;;0.65;0.65;;;20.60;99.90;;;;;;5259871;28;20589;-77
2021/12/31 12:56:36;;;;;;;0.80;0.80;;;20.50;99.90;;;;;;5250585;28;20613;-76
2021/12/31 12:59:07;;;;;;;0.88;0.88;;;20.10;99.90;;;;;;5258602;28;20039;-78
2021/12/31 13:01:45;;;;;;;0.88;0.88;;;20.60;99.90;;;;;;5235711;28;20053;-78
2021/12/31 13:04:17;;;;;;;1.65;1.50;;;20.40;99.90;;;;;;5250439;28;20048;-76
2021/12/31 13:07:00;;;;;;;26.77;1.45;;;20.90;99.90;;;;;;5256407;28;20044;-76
2021/12/31 13:09:34;;;;;;;0.60;0.60;;;21.20;99.90;;;;;;5252979;28;20460;-78
2021/12/31 13:12:07;;;;;;;;;;;21.70;99.90;;;;;;5248280;28;20573;-75
2021/12/31 13:14:38;;;;;;;0.50;0.50;;;20.60;99.90;;;;;;5256916;28;19981;-77
2021/12/31 13:17:09;;;;;;;0.73;0.73;;;20.10;99.90;;;;;;5257619;28;20566;-77
2021/12/31 13:19:44;;;;;;;0.60;0.60;;;20.50;99.90;;;;;;5253385;28;20033;-77
2021/12/31 13:22:18;;;;;;;0.63;0.63;;;20.50;99.90;;;;;;5257395;28;20049;-78
2021/12/31 13:24:55;;;;;;;0.57;0.57;;;20.40;99.90;;;;;;5256345;28;20536;-76
2021/12/31 13:27:30;;;;;;;0.80;0.80;;;20.90;99.90;;;;;;5253046;28;20103;-79
2021/12/31 13:30:08;;;;;;;;;;;20.20;99.90;;;;;;5230282;28;20045;-77
2021/12/31 13:32:47;;;;;;;0.60;0.60;;;20.40;99.90;;;;;;5255344;28;20106;-76